sensor_id;sensor_type;location;lat;lon;timestamp;P1;durP1;ratioP1;P2;durP2;ratioP2
6023;SDS011;3040;42.654;23.296;2024-03-08T00:00:16;7.53;;;6.93;;
6023;SDS011;3040;42.654;23.296;2024-03-08T00:02:44;7.80;;;7.30;;
6023;SDS011;3040;42.654;23.296;2024-03-08T00:05:15;7.63;;;7.07;;
6023;SDS011;3040;42.654;23.296;2024-03-08T00:07:43;6.67;;;6.33;;
6023;SDS011;3040;42.654;23.296;2024-03-08T00:10:10;5.07;;;4.77;;
6023;SDS011;3040;42.654;23.296;2024-03-08T00:12:38;5.50;;;5.10;;
6023;SDS011;3040;42.654;23.296;2024-03-08T00:15:07;5.10;;;4.87;;
6023;SDS011;3040;42.654;23.296;2024-03-08T00:17:34;5.37;;;5.07;;
6023;SDS011;3040;42.654;23.296;2024-03-08T00:20:01;5.00;;;4.70;;
6023;SDS011;3040;42.654;23.296;2024-03-08T00:22:34;5.00;;;4.70;;
6023;SDS011;3040;42.654;23.296;2024-03-08T00:25:02;3.83;;;3.63;;
6023;SDS011;3040;42.654;23.296;2024-03-08T00:27:28;4.83;;;4.43;;
6023;SDS011;3040;42.654;23.296;2024-03-08T00:29:56;4.33;;;4.03;;
6023;SDS011;3040;42.654;23.296;2024-03-08T00:32:23;4.00;;;3.80;;
6023;SDS011;3040;42.654;23.296;2024-03-08T00:34:50;3.13;;;2.93;;
6023;SDS011;3040;42.654;23.296;2024-03-08T00:37:18;3.57;;;3.37;;
6023;SDS011;3040;42.654;23.296;2024-03-08T00:39:46;3.70;;;3.60;;
6023;SDS011;3040;42.654;23.296;2024-03-08T00:42:12;3.30;;;3.10;;
6023;SDS011;3040;42.654;23.296;2024-03-08T00:44:39;3.30;;;3.10;;
6023;SDS011;3040;42.654;23.296;2024-03-08T00:47:06;3.07;;;2.97;;
6023;SDS011;3040;42.654;23.296;2024-03-08T00:49:33;3.37;;;3.17;;
6023;SDS011;3040;42.654;23.296;2024-03-08T00:52:01;3.27;;;3.13;;
6023;SDS011;3040;42.654;23.296;2024-03-08T00:54:28;3.37;;;3.27;;
6023;SDS011;3040;42.654;23.296;2024-03-08T00:56:56;2.83;;;2.73;;
6023;SDS011;3040;42.654;23.296;2024-03-08T00:59:23;2.40;;;2.30;;
6023;SDS011;3040;42.654;23.296;2024-03-08T01:01:50;2.23;;;2.13;;
6023;SDS011;3040;42.654;23.296;2024-03-08T01:04:16;2.00;;;1.90;;
6023;SDS011;3040;42.654;23.296;2024-03-08T01:06:44;1.53;;;1.50;;
6023;SDS011;3040;42.654;23.296;2024-03-08T01:09:12;2.17;;;2.07;;
6023;SDS011;3040;42.654;23.296;2024-03-08T01:11:39;2.03;;;1.77;;
6023;SDS011;3040;42.654;23.296;2024-03-08T01:14:08;2.13;;;2.03;;
6023;SDS011;3040;42.654;23.296;2024-03-08T01:16:35;1.80;;;1.70;;
6023;SDS011;3040;42.654;23.296;2024-03-08T01:19:02;2.00;;;1.90;;
6023;SDS011;3040;42.654;23.296;2024-03-08T01:21:29;1.87;;;1.77;;
6023;SDS011;3040;42.654;23.296;2024-03-08T01:23:56;2.27;;;2.17;;
6023;SDS011;3040;42.654;23.296;2024-03-08T01:26:22;1.97;;;1.77;;
6023;SDS011;3040;42.654;23.296;2024-03-08T01:28:49;2.00;;;1.90;;
6023;SDS011;3040;42.654;23.296;2024-03-08T01:31:17;2.00;;;1.90;;
6023;SDS011;3040;42.654;23.296;2024-03-08T01:33:44;2.00;;;1.90;;
6023;SDS011;3040;42.654;23.296;2024-03-08T01:36:11;2.03;;;1.93;;
6023;SDS011;3040;42.654;23.296;2024-03-08T01:38:40;1.67;;;1.67;;
6023;SDS011;3040;42.654;23.296;2024-03-08T01:41:07;1.57;;;1.57;;
6023;SDS011;3040;42.654;23.296;2024-03-08T01:43:34;1.83;;;1.73;;
6023;SDS011;3040;42.654;23.296;2024-03-08T01:46:01;1.97;;;1.87;;
6023;SDS011;3040;42.654;23.296;2024-03-08T01:48:30;2.03;;;1.93;;
6023;SDS011;3040;42.654;23.296;2024-03-08T01:50:57;1.90;;;1.80;;
6023;SDS011;3040;42.654;23.296;2024-03-08T01:53:25;1.80;;;1.70;;
6023;SDS011;3040;42.654;23.296;2024-03-08T01:55:53;1.80;;;1.70;;
6023;SDS011;3040;42.654;23.296;2024-03-08T01:58:23;1.33;;;1.33;;
6023;SDS011;3040;42.654;23.296;2024-03-08T02:00:50;1.40;;;1.30;;
6023;SDS011;3040;42.654;23.296;2024-03-08T02:03:19;1.33;;;1.27;;
6023;SDS011;3040;42.654;23.296;2024-03-08T02:05:48;1.10;;;1.10;;
6023;SDS011;3040;42.654;23.296;2024-03-08T02:08:16;1.20;;;1.20;;
6023;SDS011;3040;42.654;23.296;2024-03-08T02:10:43;1.30;;;1.30;;
6023;SDS011;3040;42.654;23.296;2024-03-08T02:13:11;1.40;;;1.40;;
6023;SDS011;3040;42.654;23.296;2024-03-08T02:15:49;1.40;;;1.40;;
6023;SDS011;3040;42.654;23.296;2024-03-08T02:18:16;1.87;;;1.77;;
6023;SDS011;3040;42.654;23.296;2024-03-08T02:20:44;1.00;;;1.00;;
6023;SDS011;3040;42.654;23.296;2024-03-08T02:23:12;1.37;;;1.37;;
6023;SDS011;3040;42.654;23.296;2024-03-08T02:25:39;1.40;;;1.30;;
6023;SDS011;3040;42.654;23.296;2024-03-08T02:28:07;1.50;;;1.50;;
6023;SDS011;3040;42.654;23.296;2024-03-08T02:30:36;1.73;;;1.63;;
6023;SDS011;3040;42.654;23.296;2024-03-08T02:33:03;1.40;;;1.40;;
6023;SDS011;3040;42.654;23.296;2024-03-08T02:35:30;1.40;;;1.40;;
6023;SDS011;3040;42.654;23.296;2024-03-08T02:37:58;1.83;;;1.43;;
6023;SDS011;3040;42.654;23.296;2024-03-08T02:40:25;1.70;;;1.70;;
6023;SDS011;3040;42.654;23.296;2024-03-08T02:42:52;1.90;;;1.90;;
6023;SDS011;3040;42.654;23.296;2024-03-08T02:45:18;1.70;;;1.60;;
6023;SDS011;3040;42.654;23.296;2024-03-08T02:47:45;1.40;;;1.40;;
6023;SDS011;3040;42.654;23.296;2024-03-08T02:50:14;1.97;;;1.87;;
6023;SDS011;3040;42.654;23.296;2024-03-08T02:52:41;2.43;;;2.23;;
6023;SDS011;3040;42.654;23.296;2024-03-08T02:55:10;1.87;;;1.77;;
6023;SDS011;3040;42.654;23.296;2024-03-08T02:57:40;2.83;;;1.63;;
6023;SDS011;3040;42.654;23.296;2024-03-08T03:00:07;2.30;;;2.10;;
6023;SDS011;3040;42.654;23.296;2024-03-08T03:02:35;3.50;;;1.87;;
6023;SDS011;3040;42.654;23.296;2024-03-08T03:05:02;1.73;;;1.63;;
6023;SDS011;3040;42.654;23.296;2024-03-08T03:07:31;2.00;;;1.90;;
6023;SDS011;3040;42.654;23.296;2024-03-08T03:09:58;1.90;;;1.80;;
6023;SDS011;3040;42.654;23.296;2024-03-08T03:12:28;1.97;;;1.87;;
6023;SDS011;3040;42.654;23.296;2024-03-08T03:14:55;1.03;;;1.03;;
6023;SDS011;3040;42.654;23.296;2024-03-08T03:17:22;0.90;;;0.90;;
6023;SDS011;3040;42.654;23.296;2024-03-08T03:19:49;1.93;;;1.83;;
6023;SDS011;3040;42.654;23.296;2024-03-08T03:22:16;1.80;;;1.70;;
6023;SDS011;3040;42.654;23.296;2024-03-08T03:24:43;1.70;;;1.60;;
6023;SDS011;3040;42.654;23.296;2024-03-08T03:27:11;2.03;;;1.93;;
6023;SDS011;3040;42.654;23.296;2024-03-08T03:29:39;1.30;;;1.30;;
6023;SDS011;3040;42.654;23.296;2024-03-08T03:32:07;1.10;;;1.10;;
6023;SDS011;3040;42.654;23.296;2024-03-08T03:34:34;1.70;;;1.50;;
6023;SDS011;3040;42.654;23.296;2024-03-08T03:37:02;1.27;;;1.27;;
6023;SDS011;3040;42.654;23.296;2024-03-08T03:39:29;1.30;;;1.30;;
6023;SDS011;3040;42.654;23.296;2024-03-08T03:41:56;1.30;;;1.30;;
6023;SDS011;3040;42.654;23.296;2024-03-08T03:44:23;2.67;;;1.37;;
6023;SDS011;3040;42.654;23.296;2024-03-08T03:46:51;2.10;;;1.10;;
6023;SDS011;3040;42.654;23.296;2024-03-08T03:49:18;1.57;;;1.50;;
6023;SDS011;3040;42.654;23.296;2024-03-08T03:51:45;0.90;;;0.90;;
6023;SDS011;3040;42.654;23.296;2024-03-08T03:54:12;0.90;;;0.90;;
6023;SDS011;3040;42.654;23.296;2024-03-08T03:56:39;0.67;;;0.67;;
6023;SDS011;3040;42.654;23.296;2024-03-08T03:59:06;1.07;;;0.70;;
6023;SDS011;3040;42.654;23.296;2024-03-08T04:01:33;0.70;;;0.70;;
6023;SDS011;3040;42.654;23.296;2024-03-08T04:04:01;0.70;;;0.70;;
6023;SDS011;3040;42.654;23.296;2024-03-08T04:06:28;0.60;;;0.60;;
6023;SDS011;3040;42.654;23.296;2024-03-08T04:08:55;0.70;;;0.70;;
6023;SDS011;3040;42.654;23.296;2024-03-08T04:11:21;0.80;;;0.80;;
6023;SDS011;3040;42.654;23.296;2024-03-08T04:13:48;0.70;;;0.70;;
6023;SDS011;3040;42.654;23.296;2024-03-08T04:16:15;0.60;;;0.60;;
6023;SDS011;3040;42.654;23.296;2024-03-08T04:18:41;0.90;;;0.90;;
6023;SDS011;3040;42.654;23.296;2024-03-08T04:21:10;0.80;;;0.80;;
6023;SDS011;3040;42.654;23.296;2024-03-08T04:23:36;0.70;;;0.70;;
6023;SDS011;3040;42.654;23.296;2024-03-08T04:26:03;0.63;;;0.63;;
6023;SDS011;3040;42.654;23.296;2024-03-08T04:28:31;0.50;;;0.50;;
6023;SDS011;3040;42.654;23.296;2024-03-08T04:30:58;0.70;;;0.70;;
6023;SDS011;3040;42.654;23.296;2024-03-08T04:33:25;0.87;;;0.87;;
6023;SDS011;3040;42.654;23.296;2024-03-08T04:35:53;2.07;;;1.90;;
6023;SDS011;3040;42.654;23.296;2024-03-08T04:38:21;1.07;;;1.07;;
6023;SDS011;3040;42.654;23.296;2024-03-08T04:40:48;1.53;;;1.00;;
6023;SDS011;3040;42.654;23.296;2024-03-08T04:43:15;1.40;;;0.90;;
6023;SDS011;3040;42.654;23.296;2024-03-08T04:45:43;0.93;;;0.93;;
6023;SDS011;3040;42.654;23.296;2024-03-08T04:48:10;1.10;;;1.10;;
6023;SDS011;3040;42.654;23.296;2024-03-08T04:50:37;0.70;;;0.70;;
6023;SDS011;3040;42.654;23.296;2024-03-08T04:53:05;0.90;;;0.90;;
6023;SDS011;3040;42.654;23.296;2024-03-08T04:55:34;1.27;;;0.97;;
6023;SDS011;3040;42.654;23.296;2024-03-08T04:58:02;1.10;;;1.10;;
6023;SDS011;3040;42.654;23.296;2024-03-08T05:00:31;1.10;;;1.10;;
6023;SDS011;3040;42.654;23.296;2024-03-08T05:02:58;1.47;;;1.47;;
6023;SDS011;3040;42.654;23.296;2024-03-08T05:05:24;1.93;;;1.83;;
6023;SDS011;3040;42.654;23.296;2024-03-08T05:07:53;1.60;;;1.60;;
6023;SDS011;3040;42.654;23.296;2024-03-08T05:10:20;1.83;;;1.77;;
6023;SDS011;3040;42.654;23.296;2024-03-08T05:12:48;1.53;;;1.53;;
6023;SDS011;3040;42.654;23.296;2024-03-08T05:15:15;1.87;;;1.77;;
6023;SDS011;3040;42.654;23.296;2024-03-08T05:17:42;2.00;;;1.90;;
6023;SDS011;3040;42.654;23.296;2024-03-08T05:20:09;4.70;;;1.80;;
6023;SDS011;3040;42.654;23.296;2024-03-08T05:22:38;2.47;;;2.37;;
6023;SDS011;3040;42.654;23.296;2024-03-08T05:25:06;2.20;;;2.10;;
6023;SDS011;3040;42.654;23.296;2024-03-08T05:27:34;1.80;;;1.70;;
6023;SDS011;3040;42.654;23.296;2024-03-08T05:30:03;2.20;;;2.10;;
6023;SDS011;3040;42.654;23.296;2024-03-08T05:32:30;1.90;;;1.80;;
6023;SDS011;3040;42.654;23.296;2024-03-08T05:34:57;2.10;;;2.00;;
6023;SDS011;3040;42.654;23.296;2024-03-08T05:37:23;2.50;;;2.40;;
6023;SDS011;3040;42.654;23.296;2024-03-08T05:39:51;2.50;;;2.40;;
6023;SDS011;3040;42.654;23.296;2024-03-08T05:42:18;2.13;;;2.03;;
6023;SDS011;3040;42.654;23.296;2024-03-08T05:44:45;2.40;;;2.30;;
6023;SDS011;3040;42.654;23.296;2024-03-08T05:47:13;3.20;;;3.00;;
6023;SDS011;3040;42.654;23.296;2024-03-08T05:49:41;2.70;;;2.60;;
6023;SDS011;3040;42.654;23.296;2024-03-08T05:52:09;2.90;;;2.80;;
6023;SDS011;3040;42.654;23.296;2024-03-08T05:54:36;3.03;;;2.93;;
6023;SDS011;3040;42.654;23.296;2024-03-08T05:57:02;3.43;;;3.23;;
6023;SDS011;3040;42.654;23.296;2024-03-08T05:59:30;4.03;;;3.80;;
6023;SDS011;3040;42.654;23.296;2024-03-08T06:01:56;4.00;;;3.80;;
6023;SDS011;3040;42.654;23.296;2024-03-08T06:04:24;4.50;;;4.30;;
6023;SDS011;3040;42.654;23.296;2024-03-08T06:06:52;4.30;;;3.13;;
6023;SDS011;3040;42.654;23.296;2024-03-08T06:09:20;2.80;;;2.70;;
6023;SDS011;3040;42.654;23.296;2024-03-08T06:11:49;3.07;;;2.97;;
6023;SDS011;3040;42.654;23.296;2024-03-08T06:14:16;2.90;;;2.50;;
6023;SDS011;3040;42.654;23.296;2024-03-08T06:16:43;2.47;;;2.30;;
6023;SDS011;3040;42.654;23.296;2024-03-08T06:19:10;3.17;;;2.97;;
6023;SDS011;3040;42.654;23.296;2024-03-08T06:21:38;3.10;;;2.90;;
6023;SDS011;3040;42.654;23.296;2024-03-08T06:24:06;3.60;;;3.50;;
6023;SDS011;3040;42.654;23.296;2024-03-08T06:26:33;4.07;;;3.87;;
6023;SDS011;3040;42.654;23.296;2024-03-08T06:29:00;4.90;;;4.60;;
6023;SDS011;3040;42.654;23.296;2024-03-08T06:31:26;6.03;;;5.53;;
6023;SDS011;3040;42.654;23.296;2024-03-08T06:33:53;6.33;;;5.93;;
6023;SDS011;3040;42.654;23.296;2024-03-08T06:36:20;6.93;;;6.33;;
6023;SDS011;3040;42.654;23.296;2024-03-08T06:38:49;6.27;;;5.70;;
6023;SDS011;3040;42.654;23.296;2024-03-08T06:41:16;6.93;;;6.53;;
6023;SDS011;3040;42.654;23.296;2024-03-08T06:43:43;7.40;;;6.90;;
6023;SDS011;3040;42.654;23.296;2024-03-08T06:46:10;7.20;;;6.70;;
6023;SDS011;3040;42.654;23.296;2024-03-08T06:48:37;7.20;;;6.60;;
6023;SDS011;3040;42.654;23.296;2024-03-08T06:51:04;6.77;;;6.27;;
6023;SDS011;3040;42.654;23.296;2024-03-08T06:53:31;6.40;;;5.93;;
6023;SDS011;3040;42.654;23.296;2024-03-08T06:56:01;8.77;;;7.80;;
6023;SDS011;3040;42.654;23.296;2024-03-08T06:58:28;8.13;;;7.53;;
6023;SDS011;3040;42.654;23.296;2024-03-08T07:00:54;6.80;;;6.33;;
6023;SDS011;3040;42.654;23.296;2024-03-08T07:03:23;16.67;;;9.40;;
6023;SDS011;3040;42.654;23.296;2024-03-08T07:05:51;11.37;;;9.20;;
6023;SDS011;3040;42.654;23.296;2024-03-08T07:08:18;6.67;;;6.17;;
6023;SDS011;3040;42.654;23.296;2024-03-08T07:10:47;7.50;;;6.63;;
6023;SDS011;3040;42.654;23.296;2024-03-08T07:13:15;9.67;;;6.57;;
6023;SDS011;3040;42.654;23.296;2024-03-08T07:15:43;6.60;;;6.07;;
6023;SDS011;3040;42.654;23.296;2024-03-08T07:18:10;6.47;;;6.00;;
6023;SDS011;3040;42.654;23.296;2024-03-08T07:20:39;6.03;;;5.63;;
6023;SDS011;3040;42.654;23.296;2024-03-08T07:23:06;5.53;;;5.13;;
6023;SDS011;3040;42.654;23.296;2024-03-08T07:25:33;5.87;;;5.57;;
6023;SDS011;3040;42.654;23.296;2024-03-08T07:28:00;5.63;;;5.33;;
6023;SDS011;3040;42.654;23.296;2024-03-08T07:30:28;7.10;;;6.60;;
6023;SDS011;3040;42.654;23.296;2024-03-08T07:33:12;7.03;;;6.63;;
6023;SDS011;3040;42.654;23.296;2024-03-08T07:35:39;5.90;;;5.50;;
6023;SDS011;3040;42.654;23.296;2024-03-08T07:38:07;5.73;;;5.43;;
6023;SDS011;3040;42.654;23.296;2024-03-08T07:40:35;5.03;;;4.83;;
6023;SDS011;3040;42.654;23.296;2024-03-08T07:43:03;5.10;;;4.90;;
6023;SDS011;3040;42.654;23.296;2024-03-08T07:45:31;5.00;;;4.50;;
6023;SDS011;3040;42.654;23.296;2024-03-08T07:47:58;5.17;;;4.77;;
6023;SDS011;3040;42.654;23.296;2024-03-08T07:50:25;6.17;;;5.77;;
6023;SDS011;3040;42.654;23.296;2024-03-08T07:52:51;5.80;;;5.50;;
6023;SDS011;3040;42.654;23.296;2024-03-08T07:55:18;5.67;;;5.33;;
6023;SDS011;3040;42.654;23.296;2024-03-08T07:57:45;6.07;;;5.50;;
6023;SDS011;3040;42.654;23.296;2024-03-08T08:00:13;5.17;;;4.80;;
6023;SDS011;3040;42.654;23.296;2024-03-08T08:02:44;5.10;;;4.50;;
6023;SDS011;3040;42.654;23.296;2024-03-08T08:05:11;4.87;;;4.47;;
6023;SDS011;3040;42.654;23.296;2024-03-08T08:07:38;4.53;;;4.33;;
6023;SDS011;3040;42.654;23.296;2024-03-08T08:10:08;5.93;;;5.53;;
6023;SDS011;3040;42.654;23.296;2024-03-08T08:12:43;6.50;;;6.10;;
6023;SDS011;3040;42.654;23.296;2024-03-08T08:15:10;7.77;;;7.07;;
6023;SDS011;3040;42.654;23.296;2024-03-08T08:17:37;7.40;;;6.80;;
6023;SDS011;3040;42.654;23.296;2024-03-08T08:20:06;7.47;;;6.87;;
6023;SDS011;3040;42.654;23.296;2024-03-08T08:22:34;6.63;;;6.23;;
6023;SDS011;3040;42.654;23.296;2024-03-08T08:25:00;6.50;;;6.00;;
6023;SDS011;3040;42.654;23.296;2024-03-08T08:27:28;9.47;;;5.73;;
6023;SDS011;3040;42.654;23.296;2024-03-08T08:29:55;5.17;;;4.87;;
6023;SDS011;3040;42.654;23.296;2024-03-08T08:32:23;5.43;;;5.03;;
6023;SDS011;3040;42.654;23.296;2024-03-08T08:34:51;5.37;;;5.07;;
6023;SDS011;3040;42.654;23.296;2024-03-08T08:37:19;5.93;;;5.53;;
6023;SDS011;3040;42.654;23.296;2024-03-08T08:39:46;6.20;;;5.90;;
6023;SDS011;3040;42.654;23.296;2024-03-08T08:42:16;6.23;;;5.47;;
6023;SDS011;3040;42.654;23.296;2024-03-08T08:44:43;5.27;;;5.07;;
6023;SDS011;3040;42.654;23.296;2024-03-08T08:47:09;8.93;;;7.30;;
6023;SDS011;3040;42.654;23.296;2024-03-08T08:49:36;7.50;;;7.03;;
6023;SDS011;3040;42.654;23.296;2024-03-08T08:52:03;6.50;;;5.90;;
6023;SDS011;3040;42.654;23.296;2024-03-08T08:54:32;6.30;;;5.70;;
6023;SDS011;3040;42.654;23.296;2024-03-08T08:56:58;6.13;;;5.70;;
6023;SDS011;3040;42.654;23.296;2024-03-08T08:59:26;6.40;;;4.90;;
6023;SDS011;3040;42.654;23.296;2024-03-08T09:01:52;5.30;;;4.97;;
6023;SDS011;3040;42.654;23.296;2024-03-08T09:04:19;5.20;;;4.60;;
6023;SDS011;3040;42.654;23.296;2024-03-08T09:06:48;6.20;;;5.70;;
6023;SDS011;3040;42.654;23.296;2024-03-08T09:09:14;5.83;;;5.53;;
6023;SDS011;3040;42.654;23.296;2024-03-08T09:11:43;5.40;;;5.10;;
6023;SDS011;3040;42.654;23.296;2024-03-08T09:14:11;4.20;;;3.97;;
6023;SDS011;3040;42.654;23.296;2024-03-08T09:16:38;5.90;;;5.23;;
6023;SDS011;3040;42.654;23.296;2024-03-08T09:19:05;5.30;;;4.80;;
6023;SDS011;3040;42.654;23.296;2024-03-08T09:21:32;6.80;;;4.23;;
6023;SDS011;3040;42.654;23.296;2024-03-08T09:24:00;4.03;;;3.73;;
6023;SDS011;3040;42.654;23.296;2024-03-08T09:26:26;5.00;;;3.83;;
6023;SDS011;3040;42.654;23.296;2024-03-08T09:28:54;8.30;;;4.00;;
6023;SDS011;3040;42.654;23.296;2024-03-08T09:31:21;3.33;;;3.13;;
6023;SDS011;3040;42.654;23.296;2024-03-08T09:33:48;3.73;;;3.53;;
6023;SDS011;3040;42.654;23.296;2024-03-08T09:36:15;7.90;;;4.47;;
6023;SDS011;3040;42.654;23.296;2024-03-08T09:38:42;3.43;;;3.23;;
6023;SDS011;3040;42.654;23.296;2024-03-08T09:41:09;6.07;;;3.83;;
6023;SDS011;3040;42.654;23.296;2024-03-08T09:43:38;3.03;;;2.93;;
6023;SDS011;3040;42.654;23.296;2024-03-08T09:46:06;3.40;;;3.20;;
6023;SDS011;3040;42.654;23.296;2024-03-08T09:48:34;3.80;;;3.60;;
6023;SDS011;3040;42.654;23.296;2024-03-08T09:51:01;4.00;;;3.80;;
6023;SDS011;3040;42.654;23.296;2024-03-08T09:53:29;2.87;;;2.77;;
6023;SDS011;3040;42.654;23.296;2024-03-08T09:55:56;6.83;;;4.10;;
6023;SDS011;3040;42.654;23.296;2024-03-08T09:58:22;3.83;;;3.63;;
6023;SDS011;3040;42.654;23.296;2024-03-08T10:01:17;2.53;;;2.43;;
6023;SDS011;3040;42.654;23.296;2024-03-08T10:03:44;2.23;;;2.13;;
6023;SDS011;3040;42.654;23.296;2024-03-08T10:06:14;2.13;;;1.90;;
6023;SDS011;3040;42.654;23.296;2024-03-08T10:08:40;3.03;;;1.70;;
6023;SDS011;3040;42.654;23.296;2024-03-08T10:11:08;2.10;;;1.97;;
6023;SDS011;3040;42.654;23.296;2024-03-08T10:13:36;2.00;;;1.90;;
6023;SDS011;3040;42.654;23.296;2024-03-08T10:16:05;1.50;;;1.50;;
6023;SDS011;3040;42.654;23.296;2024-03-08T10:18:33;7.00;;;2.20;;
6023;SDS011;3040;42.654;23.296;2024-03-08T10:21:04;2.77;;;1.80;;
6023;SDS011;3040;42.654;23.296;2024-03-08T10:23:32;1.90;;;1.80;;
6023;SDS011;3040;42.654;23.296;2024-03-08T10:28:41;2.63;;;2.10;;
6023;SDS011;3040;42.654;23.296;2024-03-08T10:31:09;2.17;;;1.93;;
6023;SDS011;3040;42.654;23.296;2024-03-08T10:33:37;1.87;;;1.83;;
6023;SDS011;3040;42.654;23.296;2024-03-08T10:36:05;14.37;;;3.47;;
6023;SDS011;3040;42.654;23.296;2024-03-08T10:38:34;2.50;;;2.40;;
6023;SDS011;3040;42.654;23.296;2024-03-08T10:41:02;2.80;;;2.60;;
6023;SDS011;3040;42.654;23.296;2024-03-08T10:43:31;4.27;;;2.93;;
6023;SDS011;3040;42.654;23.296;2024-03-08T10:46:10;4.50;;;2.70;;
6023;SDS011;3040;42.654;23.296;2024-03-08T10:48:49;6.20;;;2.77;;
6023;SDS011;3040;42.654;23.296;2024-03-08T10:51:18;3.47;;;2.63;;
6023;SDS011;3040;42.654;23.296;2024-03-08T10:53:45;4.17;;;2.37;;
6023;SDS011;3040;42.654;23.296;2024-03-08T10:56:14;2.33;;;2.23;;
6023;SDS011;3040;42.654;23.296;2024-03-08T10:58:41;5.60;;;3.80;;
6023;SDS011;3040;42.654;23.296;2024-03-08T11:01:10;7.93;;;3.23;;
6023;SDS011;3040;42.654;23.296;2024-03-08T11:03:43;1.90;;;1.80;;
6023;SDS011;3040;42.654;23.296;2024-03-08T11:06:15;2.07;;;1.90;;
6023;SDS011;3040;42.654;23.296;2024-03-08T11:08:43;6.40;;;2.47;;
6023;SDS011;3040;42.654;23.296;2024-03-08T11:11:23;2.80;;;2.03;;
6023;SDS011;3040;42.654;23.296;2024-03-08T11:13:55;1.80;;;1.70;;
6023;SDS011;3040;42.654;23.296;2024-03-08T11:16:38;1.90;;;1.80;;
6023;SDS011;3040;42.654;23.296;2024-03-08T11:19:25;2.00;;;1.90;;
6023;SDS011;3040;42.654;23.296;2024-03-08T11:21:58;2.10;;;1.90;;
6023;SDS011;3040;42.654;23.296;2024-03-08T11:24:36;1.93;;;1.60;;
6023;SDS011;3040;42.654;23.296;2024-03-08T11:27:05;16.40;;;2.83;;
6023;SDS011;3040;42.654;23.296;2024-03-08T11:29:32;1.90;;;1.80;;
6023;SDS011;3040;42.654;23.296;2024-03-08T11:32:03;2.07;;;1.90;;
6023;SDS011;3040;42.654;23.296;2024-03-08T11:34:31;4.00;;;2.83;;
6023;SDS011;3040;42.654;23.296;2024-03-08T11:37:00;2.13;;;1.97;;
6023;SDS011;3040;42.654;23.296;2024-03-08T11:39:29;1.90;;;1.80;;
6023;SDS011;3040;42.654;23.296;2024-03-08T11:41:56;2.43;;;2.00;;
6023;SDS011;3040;42.654;23.296;2024-03-08T11:44:26;1.87;;;1.77;;
6023;SDS011;3040;42.654;23.296;2024-03-08T11:46:53;2.60;;;1.70;;
6023;SDS011;3040;42.654;23.296;2024-03-08T11:49:21;2.13;;;2.03;;
6023;SDS011;3040;42.654;23.296;2024-03-08T11:51:50;5.30;;;3.57;;
6023;SDS011;3040;42.654;23.296;2024-03-08T11:54:20;1.90;;;1.80;;
6023;SDS011;3040;42.654;23.296;2024-03-08T11:56:46;2.40;;;2.10;;
6023;SDS011;3040;42.654;23.296;2024-03-08T11:59:13;2.37;;;1.73;;
6023;SDS011;3040;42.654;23.296;2024-03-08T12:01:40;7.67;;;2.03;;
6023;SDS011;3040;42.654;23.296;2024-03-08T12:04:10;1.87;;;1.77;;
6023;SDS011;3040;42.654;23.296;2024-03-08T12:06:39;3.50;;;1.97;;
6023;SDS011;3040;42.654;23.296;2024-03-08T12:09:09;1.53;;;1.53;;
6023;SDS011;3040;42.654;23.296;2024-03-08T12:11:38;5.33;;;2.07;;
6023;SDS011;3040;42.654;23.296;2024-03-08T12:14:05;10.37;;;2.40;;
6023;SDS011;3040;42.654;23.296;2024-03-08T12:16:32;1.77;;;1.77;;
6023;SDS011;3040;42.654;23.296;2024-03-08T12:18:59;1.40;;;1.40;;
6023;SDS011;3040;42.654;23.296;2024-03-08T12:21:31;1.80;;;1.70;;
6023;SDS011;3040;42.654;23.296;2024-03-08T12:24:03;4.97;;;1.70;;
6023;SDS011;3040;42.654;23.296;2024-03-08T12:26:34;3.33;;;1.40;;
6023;SDS011;3040;42.654;23.296;2024-03-08T12:29:16;1.43;;;1.30;;
6023;SDS011;3040;42.654;23.296;2024-03-08T12:31:45;1.23;;;1.23;;
6023;SDS011;3040;42.654;23.296;2024-03-08T12:34:12;1.30;;;1.20;;
6023;SDS011;3040;42.654;23.296;2024-03-08T12:36:44;1.47;;;1.37;;
6023;SDS011;3040;42.654;23.296;2024-03-08T12:39:12;1.30;;;1.20;;
6023;SDS011;3040;42.654;23.296;2024-03-08T12:41:41;2.40;;;1.10;;
6023;SDS011;3040;42.654;23.296;2024-03-08T12:44:08;1.60;;;1.50;;
6023;SDS011;3040;42.654;23.296;2024-03-08T12:46:38;4.33;;;1.83;;
6023;SDS011;3040;42.654;23.296;2024-03-08T12:49:09;5.03;;;1.10;;
6023;SDS011;3040;42.654;23.296;2024-03-08T12:51:37;2.23;;;1.67;;
6023;SDS011;3040;42.654;23.296;2024-03-08T12:54:04;5.27;;;1.40;;
6023;SDS011;3040;42.654;23.296;2024-03-08T12:56:32;1.80;;;1.80;;
6023;SDS011;3040;42.654;23.296;2024-03-08T12:59:00;2.20;;;1.70;;
6023;SDS011;3040;42.654;23.296;2024-03-08T13:01:27;1.43;;;1.20;;
6023;SDS011;3040;42.654;23.296;2024-03-08T13:03:56;2.37;;;1.43;;
6023;SDS011;3040;42.654;23.296;2024-03-08T13:06:23;6.83;;;1.73;;
6023;SDS011;3040;42.654;23.296;2024-03-08T13:08:50;9.57;;;2.07;;
6023;SDS011;3040;42.654;23.296;2024-03-08T13:11:18;1.73;;;1.30;;
6023;SDS011;3040;42.654;23.296;2024-03-08T13:13:45;1.63;;;1.53;;
6023;SDS011;3040;42.654;23.296;2024-03-08T13:16:12;1.47;;;1.43;;
6023;SDS011;3040;42.654;23.296;2024-03-08T13:18:40;3.13;;;1.40;;
6023;SDS011;3040;42.654;23.296;2024-03-08T13:21:09;1.60;;;1.50;;
6023;SDS011;3040;42.654;23.296;2024-03-08T13:23:39;2.17;;;1.60;;
6023;SDS011;3040;42.654;23.296;2024-03-08T13:26:11;2.20;;;1.60;;
6023;SDS011;3040;42.654;23.296;2024-03-08T13:28:40;2.60;;;1.47;;
6023;SDS011;3040;42.654;23.296;2024-03-08T13:31:07;2.70;;;1.73;;
6023;SDS011;3040;42.654;23.296;2024-03-08T13:33:35;4.83;;;1.77;;
6023;SDS011;3040;42.654;23.296;2024-03-08T13:36:02;3.33;;;1.70;;
6023;SDS011;3040;42.654;23.296;2024-03-08T13:38:32;6.83;;;1.70;;
6023;SDS011;3040;42.654;23.296;2024-03-08T13:40:59;1.40;;;1.30;;
6023;SDS011;3040;42.654;23.296;2024-03-08T13:43:26;1.87;;;1.70;;
6023;SDS011;3040;42.654;23.296;2024-03-08T13:45:54;2.60;;;2.20;;
6023;SDS011;3040;42.654;23.296;2024-03-08T13:48:22;1.70;;;1.50;;
6023;SDS011;3040;42.654;23.296;2024-03-08T13:50:48;1.40;;;1.30;;
6023;SDS011;3040;42.654;23.296;2024-03-08T13:53:16;1.67;;;1.40;;
6023;SDS011;3040;42.654;23.296;2024-03-08T13:55:44;5.70;;;1.60;;
6023;SDS011;3040;42.654;23.296;2024-03-08T13:58:12;1.67;;;1.20;;
6023;SDS011;3040;42.654;23.296;2024-03-08T14:00:39;1.50;;;1.40;;
6023;SDS011;3040;42.654;23.296;2024-03-08T14:03:08;4.10;;;1.57;;
6023;SDS011;3040;42.654;23.296;2024-03-08T14:05:38;1.40;;;1.30;;
6023;SDS011;3040;42.654;23.296;2024-03-08T14:08:05;3.00;;;1.67;;
6023;SDS011;3040;42.654;23.296;2024-03-08T14:10:33;3.27;;;1.83;;
6023;SDS011;3040;42.654;23.296;2024-03-08T14:13:01;3.93;;;1.60;;
6023;SDS011;3040;42.654;23.296;2024-03-08T14:15:30;2.10;;;1.20;;
6023;SDS011;3040;42.654;23.296;2024-03-08T14:17:56;6.37;;;2.50;;
6023;SDS011;3040;42.654;23.296;2024-03-08T14:20:23;3.00;;;1.83;;
6023;SDS011;3040;42.654;23.296;2024-03-08T14:22:51;6.53;;;1.90;;
6023;SDS011;3040;42.654;23.296;2024-03-08T14:25:18;3.07;;;1.50;;
6023;SDS011;3040;42.654;23.296;2024-03-08T14:27:45;1.63;;;1.47;;
6023;SDS011;3040;42.654;23.296;2024-03-08T14:30:13;5.27;;;1.67;;
6023;SDS011;3040;42.654;23.296;2024-03-08T14:32:53;2.87;;;2.07;;
6023;SDS011;3040;42.654;23.296;2024-03-08T14:35:20;11.93;;;2.13;;
6023;SDS011;3040;42.654;23.296;2024-03-08T14:37:46;3.03;;;1.50;;
6023;SDS011;3040;42.654;23.296;2024-03-08T14:40:15;3.93;;;1.87;;
6023;SDS011;3040;42.654;23.296;2024-03-08T14:42:42;3.33;;;2.00;;
6023;SDS011;3040;42.654;23.296;2024-03-08T14:45:10;3.73;;;2.17;;
6023;SDS011;3040;42.654;23.296;2024-03-08T14:47:38;2.80;;;1.67;;
6023;SDS011;3040;42.654;23.296;2024-03-08T14:50:05;1.90;;;1.80;;
6023;SDS011;3040;42.654;23.296;2024-03-08T14:52:32;12.80;;;2.77;;
6023;SDS011;3040;42.654;23.296;2024-03-08T14:54:59;1.97;;;1.87;;
6023;SDS011;3040;42.654;23.296;2024-03-08T14:57:28;4.33;;;2.43;;
6023;SDS011;3040;42.654;23.296;2024-03-08T14:59:57;7.80;;;2.30;;
6023;SDS011;3040;42.654;23.296;2024-03-08T15:02:30;4.10;;;3.00;;
6023;SDS011;3040;42.654;23.296;2024-03-08T15:05:00;14.30;;;3.50;;
6023;SDS011;3040;42.654;23.296;2024-03-08T15:07:33;3.97;;;2.83;;